sensor_id;sensor_type;location;lat;lon;timestamp;pressure;altitude;pressure_sealevel;temperature;humidity
48800;BME280;34611;47.964;7.982;2023-05-08T00:05:40;97066.97;;;12.79;68.46
48800;BME280;34611;47.964;7.982;2023-05-08T00:12:40;97065.34;;;12.78;68.31
48800;BME280;34611;47.964;7.982;2023-05-08T00:19:40;97063.56;;;12.78;68.53
48800;BME280;34611;47.964;7.982;2023-05-08T00:26:41;97067.97;;;12.78;68.30
48800;BME280;34611;47.964;7.982;2023-05-08T00:33:43;97060.94;;;12.78;68.27
48800;BME280;34611;47.964;7.982;2023-05-08T00:40:43;97058.34;;;12.78;68.33
48800;BME280;34611;47.964;7.982;2023-05-08T00:47:43;97066.97;;;12.79;68.50
48800;BME280;34611;47.964;7.982;2023-05-08T00:54:44;97068.78;;;12.78;68.30
48800;BME280;34611;47.964;7.982;2023-05-08T01:01:44;97073.19;;;12.78;68.40
48800;BME280;34611;47.964;7.982;2023-05-08T01:08:46;97070.56;;;12.78;68.41
48800;BME280;34611;47.964;7.982;2023-05-08T01:15:49;97079.22;;;12.78;68.39
48800;BME280;34611;47.964;7.982;2023-05-08T01:37:05;97081.81;;;12.78;68.46
48800;BME280;34611;47.964;7.982;2023-05-08T01:44:17;97088.81;;;12.78;68.34
48800;BME280;34611;47.964;7.982;2023-05-08T01:51:20;97084.44;;;12.78;68.42
48800;BME280;34611;47.964;7.982;2023-05-08T01:58:22;97083.47;;;12.79;68.47
48800;BME280;34611;47.964;7.982;2023-05-08T02:05:23;97088.69;;;12.79;68.44
48800;BME280;34611;47.964;7.982;2023-05-08T02:12:24;97079.22;;;12.78;68.39
48800;BME280;34611;47.964;7.982;2023-05-08T02:19:25;97077.41;;;12.79;68.26
48800;BME280;34611;47.964;7.982;2023-05-08T02:26:27;97077.41;;;12.79;68.34
48800;BME280;34611;47.964;7.982;2023-05-08T02:33:30;97078.25;;;12.79;68.37
48800;BME280;34611;47.964;7.982;2023-05-08T02:40:31;97089.50;;;12.80;68.36
48800;BME280;34611;47.964;7.982;2023-05-08T02:47:33;97090.63;;;12.77;68.49
48800;BME280;34611;47.964;7.982;2023-05-08T02:54:52;97090.63;;;12.77;68.22
48800;BME280;34611;47.964;7.982;2023-05-08T03:01:59;97099.13;;;12.79;68.39
48800;BME280;34611;47.964;7.982;2023-05-08T03:09:05;97092.94;;;12.80;68.29
48800;BME280;34611;47.964;7.982;2023-05-08T03:16:15;97087.03;;;12.78;68.53
48800;BME280;34611;47.964;7.982;2023-05-08T03:23:17;97085.41;;;12.77;68.47
48800;BME280;34611;47.964;7.982;2023-05-08T03:30:19;97070.56;;;12.78;68.47
48800;BME280;34611;47.964;7.982;2023-05-08T03:37:27;97066.16;;;12.78;68.48
48800;BME280;34611;47.964;7.982;2023-05-08T03:44:28;97069.75;;;12.77;68.39
48800;BME280;34611;47.964;7.982;2023-05-08T03:51:29;97066.97;;;12.79;68.36
48800;BME280;34611;47.964;7.982;2023-05-08T03:58:32;97081.69;;;12.80;68.48
48800;BME280;34611;47.964;7.982;2023-05-08T04:05:34;97089.50;;;12.80;68.37
48800;BME280;34611;47.964;7.982;2023-05-08T04:19:57;97092.13;;;12.80;68.58
48800;BME280;34611;47.964;7.982;2023-05-08T04:26:59;97111.31;;;12.79;68.62
48800;BME280;34611;47.964;7.982;2023-05-08T04:34:00;97107.91;;;12.78;68.32
48800;BME280;34611;47.964;7.982;2023-05-08T04:41:01;97105.16;;;12.80;68.53
48800;BME280;34611;47.964;7.982;2023-05-08T04:48:02;97119.16;;;12.79;68.50
48800;BME280;34611;47.964;7.982;2023-05-08T04:55:02;97116.69;;;12.87;68.35
48800;BME280;34611;47.964;7.982;2023-05-08T05:02:05;97120.94;;;12.78;68.54
48800;BME280;34611;47.964;7.982;2023-05-08T05:09:07;97122.59;;;12.79;68.36
48800;BME280;34611;47.964;7.982;2023-05-08T05:16:08;97130.44;;;12.79;68.43
48800;BME280;34611;47.964;7.982;2023-05-08T05:23:08;97125.22;;;12.79;68.40
48800;BME280;34611;47.964;7.982;2023-05-08T05:30:09;97129.59;;;12.79;68.43
48800;BME280;34611;47.964;7.982;2023-05-08T05:37:10;97137.41;;;12.79;68.46
48800;BME280;34611;47.964;7.982;2023-05-08T05:44:11;97140.88;;;12.79;68.33
48800;BME280;34611;47.964;7.982;2023-05-08T05:51:12;97147.03;;;12.78;68.35
48800;BME280;34611;47.964;7.982;2023-05-08T05:58:12;97149.50;;;12.80;68.45
48800;BME280;34611;47.964;7.982;2023-05-08T06:05:12;97144.44;;;12.78;68.40
48800;BME280;34611;47.964;7.982;2023-05-08T06:12:13;97145.25;;;12.79;68.39
48800;BME280;34611;47.964;7.982;2023-05-08T06:19:13;97149.66;;;12.78;68.53
48800;BME280;34611;47.964;7.982;2023-05-08T06:26:14;97156.66;;;12.78;68.47
48800;BME280;34611;47.964;7.982;2023-05-08T06:33:14;97159.13;;;12.79;68.35
48800;BME280;34611;47.964;7.982;2023-05-08T06:40:14;97157.47;;;12.78;68.43
48800;BME280;34611;47.964;7.982;2023-05-08T06:47:15;97154.84;;;12.78;68.40
48800;BME280;34611;47.964;7.982;2023-05-08T06:54:15;97156.78;;;12.76;68.43
48800;BME280;34611;47.964;7.982;2023-05-08T07:01:15;97161.88;;;12.78;68.31
48800;BME280;34611;47.964;7.982;2023-05-08T07:08:15;97153.91;;;12.79;68.44
48800;BME280;34611;47.964;7.982;2023-05-08T07:15:16;97161.75;;;12.79;68.28
48800;BME280;34611;47.964;7.982;2023-05-08T07:22:16;97162.69;;;12.78;68.45
48800;BME280;34611;47.964;7.982;2023-05-08T07:29:16;97168.72;;;12.79;68.40
48800;BME280;34611;47.964;7.982;2023-05-08T07:36:17;97167.78;;;12.80;68.39
48800;BME280;34611;47.964;7.982;2023-05-08T07:43:17;97176.53;;;12.79;68.44
48800;BME280;34611;47.964;7.982;2023-05-08T07:50:17;97180.13;;;12.78;68.21
48800;BME280;34611;47.964;7.982;2023-05-08T07:57:18;97184.38;;;12.79;68.32
48800;BME280;34611;47.964;7.982;2023-05-08T08:04:18;97180.94;;;12.78;68.25
48800;BME280;34611;47.964;7.982;2023-05-08T08:11:18;97186.97;;;12.79;68.37
48800;BME280;34611;47.964;7.982;2023-05-08T08:18:18;97184.38;;;12.79;68.29
48800;BME280;34611;47.964;7.982;2023-05-08T08:25:19;97187.84;;;12.79;68.43
48800;BME280;34611;47.964;7.982;2023-05-08T08:32:19;97182.63;;;12.79;68.36
48800;BME280;34611;47.964;7.982;2023-05-08T08:39:20;97186.16;;;12.78;68.40
48800;BME280;34611;47.964;7.982;2023-05-08T08:46:23;97186.16;;;12.78;68.36
48800;BME280;34611;47.964;7.982;2023-05-08T08:53:25;97180.94;;;12.78;68.38
48800;BME280;34611;47.964;7.982;2023-05-08T09:00:27;97180.00;;;12.79;68.37
48800;BME280;34611;47.964;7.982;2023-05-08T09:07:29;97175.72;;;12.78;68.37
48800;BME280;34611;47.964;7.982;2023-05-08T09:14:29;97171.31;;;12.79;68.39
48800;BME280;34611;47.964;7.982;2023-05-08T09:21:29;97185.22;;;12.79;68.37
48800;BME280;34611;47.964;7.982;2023-05-08T09:28:31;97181.75;;;12.79;68.29
48800;BME280;34611;47.964;7.982;2023-05-08T09:35:34;97180.13;;;12.78;68.45
48800;BME280;34611;47.964;7.982;2023-05-08T09:42:38;97182.63;;;12.79;68.28
48800;BME280;34611;47.964;7.982;2023-05-08T09:49:41;97183.56;;;12.78;68.28
48800;BME280;34611;47.964;7.982;2023-05-08T09:56:55;97192.19;;;12.79;68.39
48800;BME280;34611;47.964;7.982;2023-05-08T10:03:56;97192.19;;;12.79;68.13
48800;BME280;34611;47.964;7.982;2023-05-08T10:11:11;97196.59;;;12.78;68.33
48800;BME280;34611;47.964;7.982;2023-05-08T10:18:12;97202.63;;;12.79;68.38
48800;BME280;34611;47.964;7.982;2023-05-08T10:25:17;97194.00;;;12.78;68.20
48800;BME280;34611;47.964;7.982;2023-05-08T10:32:20;97200.03;;;12.79;68.36
48800;BME280;34611;47.964;7.982;2023-05-08T10:39:20;97195.78;;;12.78;68.33
48800;BME280;34611;47.964;7.982;2023-05-08T10:46:24;97194.00;;;12.78;68.24
48800;BME280;34611;47.964;7.982;2023-05-08T11:01:09;97166.97;;;12.79;68.19
48800;BME280;34611;47.964;7.982;2023-05-08T11:07:56;97167.91;;;12.78;68.43
48800;BME280;34611;47.964;7.982;2023-05-08T11:14:59;97165.28;;;12.78;68.36
48800;BME280;34611;47.964;7.982;2023-05-08T11:29:16;97148.69;;;12.79;68.23
48800;BME280;34611;47.964;7.982;2023-05-08T11:36:17;97144.28;;;12.80;68.36
48800;BME280;34611;47.964;7.982;2023-05-08T11:50:26;97140.88;;;12.79;68.32
48800;BME280;34611;47.964;7.982;2023-05-08T11:57:26;97135.66;;;12.79;68.18
48800;BME280;34611;47.964;7.982;2023-05-08T12:04:29;97135.66;;;12.79;68.19
48800;BME280;34611;47.964;7.982;2023-05-08T12:11:29;97132.88;;;12.81;68.26
48800;BME280;34611;47.964;7.982;2023-05-08T12:18:30;97135.66;;;12.79;68.28
48800;BME280;34611;47.964;7.982;2023-05-08T12:25:31;97124.38;;;12.79;68.48
48800;BME280;34611;47.964;7.982;2023-05-08T12:32:31;97123.44;;;12.80;68.44
48800;BME280;34611;47.964;7.982;2023-05-08T12:39:34;97124.25;;;12.80;68.29
48800;BME280;34611;47.964;7.982;2023-05-08T12:46:36;97131.09;;;12.81;68.38
48800;BME280;34611;47.964;7.982;2023-05-08T12:53:44;97126.84;;;12.80;68.43
48800;BME280;34611;47.964;7.982;2023-05-08T13:00:46;97132.06;;;12.80;68.56
48800;BME280;34611;47.964;7.982;2023-05-08T13:07:47;97135.66;;;12.79;68.53
48800;BME280;34611;47.964;7.982;2023-05-08T13:14:48;97136.31;;;12.81;68.38
48800;BME280;34611;47.964;7.982;2023-05-08T13:21:48;97132.06;;;12.80;68.54
48800;BME280;34611;47.964;7.982;2023-05-08T13:28:49;97127.66;;;12.81;68.52
48800;BME280;34611;47.964;7.982;2023-05-08T13:35:49;97118.91;;;12.82;68.48
48800;BME280;34611;47.964;7.982;2023-05-08T13:42:49;97118.91;;;12.82;68.56
48800;BME280;34611;47.964;7.982;2023-05-08T13:49:50;97105.84;;;12.82;68.38
48800;BME280;34611;47.964;7.982;2023-05-08T13:56:50;97100.75;;;12.80;68.56
48800;BME280;34611;47.964;7.982;2023-05-08T14:03:50;97098.16;;;12.80;68.61
48800;BME280;34611;47.964;7.982;2023-05-08T14:10:51;97091.97;;;12.81;68.60
48800;BME280;34611;47.964;7.982;2023-05-08T14:17:51;97091.16;;;12.81;68.47
48800;BME280;34611;47.964;7.982;2023-05-08T14:24:51;97089.50;;;12.80;68.58
48800;BME280;34611;47.964;7.982;2023-05-08T14:31:52;97089.34;;;12.81;68.63
48800;BME280;34611;47.964;7.982;2023-05-08T14:38:52;97089.34;;;12.81;68.39
48800;BME280;34611;47.964;7.982;2023-05-08T14:45:52;97083.31;;;12.81;68.60
48800;BME280;34611;47.964;7.982;2023-05-08T14:52:53;97083.47;;;12.79;68.66
48800;BME280;34611;47.964;7.982;2023-05-08T14:59:53;97083.31;;;12.81;68.51
48800;BME280;34611;47.964;7.982;2023-05-08T15:06:55;97087.59;;;12.82;68.42
48800;BME280;34611;47.964;7.982;2023-05-08T15:13:55;97098.84;;;12.82;68.49
48800;BME280;34611;47.964;7.982;2023-05-08T15:20:55;97115.59;;;12.80;68.66
48800;BME280;34611;47.964;7.982;2023-05-08T15:27:57;97124.13;;;12.82;68.64
48800;BME280;34611;47.964;7.982;2023-05-08T15:34:58;97138.91;;;12.81;68.63
48800;BME280;34611;47.964;7.982;2023-05-08T15:41:58;97133.69;;;12.81;68.73
48800;BME280;34611;47.964;7.982;2023-05-08T15:48:59;97142.38;;;12.82;68.68
48800;BME280;34611;47.964;7.982;2023-05-08T15:55:59;97147.59;;;12.82;68.49
48800;BME280;34611;47.964;7.982;2023-05-08T16:02:59;97150.19;;;12.82;68.61
48800;BME280;34611;47.964;7.982;2023-05-08T16:10:00;97156.25;;;12.82;68.74
48800;BME280;34611;47.964;7.982;2023-05-08T16:17:00;97163.09;;;12.83;68.45
48800;BME280;34611;47.964;7.982;2023-05-08T16:24:01;97171.06;;;12.82;68.75
48800;BME280;34611;47.964;7.982;2023-05-08T16:31:01;97163.09;;;12.83;68.60
48800;BME280;34611;47.964;7.982;2023-05-08T16:38:03;97170.22;;;12.81;68.74
48800;BME280;34611;47.964;7.982;2023-05-08T16:45:03;97170.91;;;12.83;68.85
48800;BME280;34611;47.964;7.982;2023-05-08T16:52:04;97169.28;;;12.82;68.79
48800;BME280;34611;47.964;7.982;2023-05-08T16:59:04;97165.84;;;12.82;68.67
48800;BME280;34611;47.964;7.982;2023-05-08T17:06:07;97163.94;;;12.84;68.75
48800;BME280;34611;47.964;7.982;2023-05-08T17:13:08;97156.25;;;12.82;68.67
48800;BME280;34611;47.964;7.982;2023-05-08T17:20:08;97159.66;;;12.83;68.62
48800;BME280;34611;47.964;7.982;2023-05-08T17:27:08;97158.84;;;12.82;68.73
48800;BME280;34611;47.964;7.982;2023-05-08T17:34:09;97158.72;;;12.84;68.86
48800;BME280;34611;47.964;7.982;2023-05-08T17:41:09;97151.84;;;12.83;68.78
48800;BME280;34611;47.964;7.982;2023-05-08T17:48:09;97164.88;;;12.83;68.68
48800;BME280;34611;47.964;7.982;2023-05-08T17:55:09;97164.09;;;13.21;68.69
48800;BME280;34611;47.964;7.982;2023-05-08T18:02:10;97167.22;;;12.95;68.77
48800;BME280;34611;47.964;7.982;2023-05-08T18:09:10;97169.31;;;12.92;68.69
48800;BME280;34611;47.964;7.982;2023-05-08T18:16:14;97174.53;;;12.92;68.81
48800;BME280;34611;47.964;7.982;2023-05-08T18:23:15;97162.28;;;12.92;68.76
48800;BME280;34611;47.964;7.982;2023-05-08T18:30:15;97171.06;;;12.91;68.81
48800;BME280;34611;47.964;7.982;2023-05-08T18:37:18;97172.75;;;12.92;68.67
48800;BME280;34611;47.964;7.982;2023-05-08T18:44:18;97177.13;;;12.92;68.51
48800;BME280;34611;47.964;7.982;2023-05-08T18:51:18;97183.16;;;12.92;68.45
48800;BME280;34611;47.964;7.982;2023-05-08T18:58:19;97186.72;;;12.91;68.57
48800;BME280;34611;47.964;7.982;2023-05-08T19:05:19;97184.97;;;12.92;68.54
48800;BME280;34611;47.964;7.982;2023-05-08T19:12:19;97182.34;;;12.92;68.50
48800;BME280;34611;47.964;7.982;2023-05-08T19:19:20;97183.16;;;12.92;68.36
48800;BME280;34611;47.964;7.982;2023-05-08T19:26:20;97191.13;;;12.91;68.58
48800;BME280;34611;47.964;7.982;2023-05-08T19:33:20;97188.38;;;12.92;68.59
48800;BME280;34611;47.964;7.982;2023-05-08T19:40:21;97182.34;;;12.92;68.55
48800;BME280;34611;47.964;7.982;2023-05-08T19:47:21;97184.00;;;12.93;68.56
48800;BME280;34611;47.964;7.982;2023-05-08T19:54:21;97192.78;;;12.92;68.39
48800;BME280;34611;47.964;7.982;2023-05-08T20:01:21;97203.22;;;12.92;68.37
48800;BME280;34611;47.964;7.982;2023-05-08T20:08:22;97198.94;;;12.91;68.59
48800;BME280;34611;47.964;7.982;2023-05-08T20:15:22;97206.66;;;12.92;68.42
48800;BME280;34611;47.964;7.982;2023-05-08T20:22:22;97202.38;;;12.91;68.68
48800;BME280;34611;47.964;7.982;2023-05-08T20:29:23;97203.22;;;12.92;68.49
48800;BME280;34611;47.964;7.982;2023-05-08T20:36:23;97208.44;;;12.92;68.36
48800;BME280;34611;47.964;7.982;2023-05-08T20:43:23;97200.63;;;12.92;68.39
48800;BME280;34611;47.964;7.982;2023-05-08T20:50:24;97198.81;;;12.92;68.57
48800;BME280;34611;47.964;7.982;2023-05-08T20:57:24;97201.44;;;12.92;68.50
48800;BME280;34611;47.964;7.982;2023-05-08T21:04:24;97197.16;;;12.91;68.68
48800;BME280;34611;47.964;7.982;2023-05-08T21:11:25;97192.78;;;12.92;68.21
48800;BME280;34611;47.964;7.982;2023-05-08T21:18:25;97185.78;;;12.92;68.37
48800;BME280;34611;47.964;7.982;2023-05-08T21:25:25;97188.38;;;12.92;68.20
48800;BME280;34611;47.964;7.982;2023-05-08T21:32:25;97181.38;;;12.93;68.32
48800;BME280;34611;47.964;7.982;2023-05-08T21:39:26;97172.75;;;12.92;68.46
48800;BME280;34611;47.964;7.982;2023-05-08T21:46:27;97165.84;;;12.91;68.49
48800;BME280;34611;47.964;7.982;2023-05-08T21:53:27;97164.09;;;12.92;68.45
48800;BME280;34611;47.964;7.982;2023-05-08T22:00:28;97144.16;;;12.91;68.47
48800;BME280;34611;47.964;7.982;2023-05-08T22:07:28;97151.03;;;12.92;68.28
48800;BME280;34611;47.964;7.982;2023-05-08T22:14:28;97146.66;;;12.92;68.49
48800;BME280;34611;47.964;7.982;2023-05-08T22:21:29;97135.38;;;12.92;68.35
48800;BME280;34611;47.964;7.982;2023-05-08T22:28:29;97131.94;;;12.91;68.36
48800;BME280;34611;47.964;7.982;2023-05-08T22:35:29;97123.16;;;12.92;68.43
48800;BME280;34611;47.964;7.982;2023-05-08T22:42:29;97114.50;;;12.92;68.30
48800;BME280;34611;47.964;7.982;2023-05-08T22:49:30;97099.69;;;12.92;68.29
48800;BME280;34611;47.964;7.982;2023-05-08T22:56:30;97098.00;;;12.91;68.41
48800;BME280;34611;47.964;7.982;2023-05-08T23:03:30;97100.63;;;12.91;68.37
48800;BME280;34611;47.964;7.982;2023-05-08T23:10:31;97103.22;;;12.91;68.30
48800;BME280;34611;47.964;7.982;2023-05-08T23:17:31;97098.00;;;12.91;68.30
48800;BME280;34611;47.964;7.982;2023-05-08T23:24:34;97103.22;;;12.91;68.40
48800;BME280;34611;47.964;7.982;2023-05-08T23:31:35;97098.84;;;12.92;68.30
48800;BME280;34611;47.964;7.982;2023-05-08T23:38:35;97093.63;;;12.92;68.26
48800;BME280;34611;47.964;7.982;2023-05-08T23:45:35;97084.84;;;12.93;68.41
48800;BME280;34611;47.964;7.982;2023-05-08T23:52:35;97070.16;;;12.92;68.22
48800;BME280;34611;47.964;7.982;2023-05-08T23:59:36;97076.31;;;12.91;68.24
